Time;durP1;ratioP1;P1;durP2;ratioP2;P2;SDS_P1;SDS_P2;PMS_P1;PMS_P2;Temp;Humidity;BMP_temperature;BMP_pressure;BME280_temperature;BME280_humidity;BME280_pressure;Samples;Min_cycle;Max_cycle;Signal;HPM_P1;HPM_P2
2024/01/29 00:02:11;;;;;;;5.97;2.20;;;7.10;80.40;;;;;;6098421;23;20065;-91
2024/01/29 00:04:37;;;;;;;6.60;2.47;;;7.10;80.50;;;;;;6097364;23;20122;-92
2024/01/29 00:07:02;;;;;;;6.70;2.35;;;7.10;81.30;;;;;;6123318;23;20021;-91
2024/01/29 00:09:28;;;;;;;4.70;1.70;;;7.10;81.50;;;;;;6123977;23;20084;-92
2024/01/29 00:11:54;;;;;;;5.25;1.83;;;7.00;81.50;;;;;;6097998;23;20099;-91
2024/01/29 00:14:19;;;;;;;4.53;1.77;;;7.00;81.90;;;;;;6123841;23;20020;-92
2024/01/29 00:16:46;;;;;;;6.20;2.22;;;7.00;82.40;;;;;;6097214;23;20084;-91
2024/01/29 00:19:11;;;;;;;8.35;2.85;;;6.90;83.00;;;;;;6097305;23;20482;-91
2024/01/29 00:21:37;;;;;;;6.45;2.17;;;6.90;82.80;;;;;;6122533;23;20053;-91
2024/01/29 00:24:03;;;;;;;8.63;2.60;;;6.90;83.10;;;;;;6121514;23;20069;-91
2024/01/29 00:26:29;;;;;;;6.63;2.35;;;6.90;83.50;;;;;;6096782;23;20018;-92
2024/01/29 00:28:56;;;;;;;7.20;2.40;;;6.90;83.50;;;;;;6121695;23;20891;-92
2024/01/29 00:31:22;;;;;;;7.50;2.30;;;6.90;83.90;;;;;;6097296;23;20016;-92
2024/01/29 00:33:48;;;;;;;8.60;2.35;;;6.80;83.80;;;;;;6097596;23;20073;-90
2024/01/29 00:36:15;;;;;;;6.68;2.00;;;6.80;84.10;;;;;;6096891;23;20009;-91
2024/01/29 00:38:41;;;;;;;5.15;1.90;;;6.80;84.30;;;;;;6096797;23;20014;-91
2024/01/29 00:41:06;;;;;;;7.60;2.33;;;6.80;84.90;;;;;;6097402;23;20467;-91
2024/01/29 00:43:32;;;;;;;5.68;2.38;;;6.80;85.20;;;;;;6121312;23;20507;-91
2024/01/29 00:45:58;;;;;;;5.53;2.30;;;6.80;86.10;;;;;;6121585;23;20447;-92
2024/01/29 00:48:25;;;;;;;6.60;2.45;;;6.80;86.40;;;;;;6097514;23;20010;-91
2024/01/29 00:50:55;;;;;;;8.07;2.38;;;6.80;85.80;;;;;;6097305;23;20093;-92
2024/01/29 00:53:21;;;;;;;7.55;2.72;;;6.80;86.50;;;;;;6122177;23;20512;-90
2024/01/29 00:55:47;;;;;;;8.93;2.60;;;6.80;85.80;;;;;;6096994;23;20421;-92
2024/01/29 00:58:14;;;;;;;5.43;2.00;;;6.70;86.10;;;;;;6097460;23;20018;-91
2024/01/29 01:00:41;;;;;;;7.38;2.45;;;6.70;88.00;;;;;;6121972;23;20009;-91
2024/01/29 01:03:08;;;;;;;8.70;2.65;;;6.70;86.70;;;;;;6122108;23;20053;-91
2024/01/29 01:05:34;;;;;;;6.78;2.40;;;6.70;87.90;;;;;;6096253;23;20018;-91
2024/01/29 01:08:01;;;;;;;5.88;2.03;;;6.70;88.60;;;;;;6122186;23;20052;-91
2024/01/29 01:10:27;;;;;;;10.07;2.92;;;6.70;88.90;;;;;;6097106;23;20021;-91
2024/01/29 01:12:53;;;;;;;7.70;2.33;;;6.60;89.10;;;;;;6096133;23;20014;-91
2024/01/29 01:15:19;;;;;;;6.55;2.15;;;6.60;88.70;;;;;;6095807;23;20014;-91
2024/01/29 01:17:46;;;;;;;8.18;2.63;;;6.60;89.40;;;;;;6121234;23;20017;-91
2024/01/29 01:20:11;;;;;;;6.35;2.03;;;6.60;90.10;;;;;;6121723;23;20347;-91
2024/01/29 01:22:37;;;;;;;7.07;2.72;;;6.60;89.50;;;;;;6095832;23;20456;-92
2024/01/29 01:25:04;;;;;;;8.52;2.83;;;6.60;90.20;;;;;;6120522;23;20132;-91
2024/01/29 01:27:30;;;;;;;6.88;2.40;;;6.60;90.40;;;;;;6096559;23;20061;-91
2024/01/29 01:29:56;;;;;;;7.25;2.88;;;6.60;90.40;;;;;;6122750;23;20010;-92
2024/01/29 01:32:21;;;;;;;10.48;2.60;;;6.50;90.30;;;;;;6095971;23;20010;-91
2024/01/29 01:34:47;;;;;;;8.93;2.63;;;6.60;90.30;;;;;;6095329;23;20010;-91
2024/01/29 01:37:12;;;;;;;7.22;2.60;;;6.50;90.40;;;;;;6120291;23;20083;-91
2024/01/29 01:39:38;;;;;;;8.75;2.45;;;6.50;90.50;;;;;;6121871;23;20574;-91
2024/01/29 01:42:04;;;;;;;7.68;2.28;;;6.50;92.10;;;;;;6121524;23;20026;-91
2024/01/29 01:44:30;;;;;;;7.78;2.63;;;6.50;90.90;;;;;;6120570;23;20505;-91
2024/01/29 01:46:56;;;;;;;7.13;2.22;;;6.50;91.20;;;;;;6095384;23;20021;-91
2024/01/29 01:49:22;;;;;;;7.25;2.25;;;6.50;91.40;;;;;;6122627;23;20470;-91
2024/01/29 01:51:49;;;;;;;8.77;2.78;;;6.50;91.50;;;;;;6096088;23;20524;-92
2024/01/29 01:54:16;;;;;;;5.97;1.95;;;6.50;91.70;;;;;;6095510;23;20552;-91
2024/01/29 01:56:42;;;;;;;7.25;2.72;;;6.40;91.60;;;;;;6096030;23;20084;-91
2024/01/29 01:59:10;;;;;;;8.55;2.78;;;6.50;92.30;;;;;;6120540;23;20032;-91
2024/01/29 02:01:35;;;;;;;8.07;2.60;;;6.50;92.20;;;;;;6120379;23;20017;-91
2024/01/29 02:04:01;;;;;;;7.10;2.65;;;6.50;91.80;;;;;;6095631;23;20337;-90
2024/01/29 02:06:27;;;;;;;7.93;2.10;;;6.40;92.00;;;;;;6095490;23;20017;-91
2024/01/29 02:08:54;;;;;;;4.88;1.95;;;6.40;92.10;;;;;;6122216;23;20014;-91
2024/01/29 02:11:19;;;;;;;9.25;2.70;;;6.40;92.30;;;;;;6095930;23;20021;-90
2024/01/29 02:13:45;;;;;;;9.40;2.40;;;6.40;92.50;;;;;;6095696;23;20010;-92
2024/01/29 02:16:10;;;;;;;9.20;3.28;;;6.40;92.50;;;;;;6119892;23;20017;-93
2024/01/29 02:18:36;;;;;;;9.52;2.83;;;6.40;92.60;;;;;;6120600;23;20022;-90
2024/01/29 02:21:02;;;;;;;7.35;2.30;;;6.40;92.40;;;;;;6096019;23;20064;-91
2024/01/29 02:23:28;;;;;;;9.27;2.20;;;6.40;92.40;;;;;;6120645;23;20442;-92
2024/01/29 02:25:53;;;;;;;8.70;1.58;;;6.40;92.80;;;;;;6095085;23;20093;-91
2024/01/29 02:28:19;;;;;;;5.43;1.83;;;6.40;92.70;;;;;;6120376;23;20037;-91
2024/01/29 02:30:44;;;;;;;10.38;2.50;;;6.40;93.30;;;;;;6120852;23;20049;-91
2024/01/29 02:33:10;;;;;;;9.30;3.03;;;6.40;92.40;;;;;;6096239;23;20018;-90
2024/01/29 02:35:36;;;;;;;7.38;2.72;;;6.40;92.80;;;;;;6120052;23;20014;-92
2024/01/29 02:38:02;;;;;;;8.57;2.13;;;6.40;92.80;;;;;;6120035;23;20024;-91
2024/01/29 02:40:28;;;;;;;7.18;2.90;;;6.40;92.90;;;;;;6096026;23;20018;-92
2024/01/29 02:42:54;;;;;;;8.25;2.83;;;6.40;93.10;;;;;;6121931;23;20105;-91
2024/01/29 02:45:19;;;;;;;6.82;2.65;;;6.40;93.60;;;;;;6094988;23;20060;-92
2024/01/29 02:47:45;;;;;;;7.30;2.42;;;6.40;93.70;;;;;;6119415;23;20010;-91
2024/01/29 02:50:11;;;;;;;8.23;2.80;;;6.30;94.50;;;;;;6121108;23;20017;-92
2024/01/29 02:52:36;;;;;;;9.43;2.55;;;6.40;93.90;;;;;;6098527;23;20014;-92
2024/01/29 02:55:03;;;;;;;8.93;2.80;;;6.30;95.10;;;;;;6097959;23;20619;-91
2024/01/29 02:57:28;;;;;;;7.03;2.55;;;6.40;94.20;;;;;;6098330;23;20029;-91
2024/01/29 02:59:54;;;;;;;7.90;2.22;;;6.30;94.30;;;;;;6123101;23;20010;-91
2024/01/29 03:02:20;;;;;;;8.18;2.67;;;6.40;94.50;;;;;;6099519;23;20321;-91
2024/01/29 03:04:45;;;;;;;9.38;2.97;;;6.30;94.50;;;;;;6098711;23;20442;-91
2024/01/29 03:07:11;;;;;;;7.13;2.45;;;6.30;94.40;;;;;;6122878;23;20041;-92
2024/01/29 03:09:37;;;;;;;8.60;2.83;;;6.30;94.90;;;;;;6125374;23;20010;-91
2024/01/29 03:12:03;;;;;;;7.82;2.65;;;6.30;98.20;;;;;;6124290;23;20013;-92
2024/01/29 03:14:28;;;;;;;9.50;2.55;;;6.30;96.20;;;;;;6124483;23;20467;-91
2024/01/29 03:16:55;;;;;;;8.18;2.65;;;6.30;95.60;;;;;;6123026;23;20098;-91
2024/01/29 03:19:21;;;;;;;8.52;2.50;;;6.30;96.00;;;;;;6098477;23;20041;-91
2024/01/29 03:21:46;;;;;;;9.00;2.78;;;6.20;95.80;;;;;;6122998;23;20022;-91
2024/01/29 03:24:12;;;;;;;7.15;2.90;;;6.20;96.20;;;;;;6122907;23;20014;-90
2024/01/29 03:26:38;;;;;;;7.25;2.90;;;6.20;96.40;;;;;;6097847;23;20040;-91
2024/01/29 03:29:04;;;;;;;6.90;2.53;;;6.20;96.90;;;;;;6122814;23;20093;-91
2024/01/29 03:31:30;;;;;;;6.43;2.55;;;6.10;96.70;;;;;;6098248;23;20017;-91
2024/01/29 03:33:55;;;;;;;9.57;3.00;;;6.10;97.80;;;;;;6123218;23;20045;-90
2024/01/29 03:36:21;;;;;;;9.75;2.80;;;6.10;97.50;;;;;;6122689;23;20351;-91
2024/01/29 03:38:47;;;;;;;7.35;2.85;;;6.10;97.10;;;;;;6122919;23;20046;-91
2024/01/29 03:41:12;;;;;;;8.48;2.80;;;6.10;97.00;;;;;;6123150;23;20022;-91
2024/01/29 03:43:38;;;;;;;6.95;2.88;;;6.10;97.00;;;;;;6099177;23;20018;-91
2024/01/29 03:46:03;;;;;;;7.50;2.65;;;6.10;97.20;;;;;;6123836;23;20329;-91
2024/01/29 03:48:29;;;;;;;7.20;2.72;;;6.10;97.50;;;;;;6099854;23;20483;-91
2024/01/29 03:50:55;;;;;;;8.20;2.72;;;6.10;97.80;;;;;;6099684;23;20626;-91
2024/01/29 03:53:20;;;;;;;9.40;3.08;;;6.10;97.60;;;;;;6123597;23;20020;-91
2024/01/29 03:55:47;;;;;;;7.82;2.95;;;6.10;97.50;;;;;;6122955;23;20037;-91
2024/01/29 03:58:13;;;;;;;9.05;3.50;;;6.10;98.00;;;;;;6097795;23;20200;-91
2024/01/29 04:00:39;;;;;;;9.25;2.58;;;6.10;97.70;;;;;;6098142;23;20022;-91
2024/01/29 04:03:06;;;;;;;7.35;2.83;;;6.10;98.30;;;;;;6097454;23;20094;-90
2024/01/29 04:05:32;;;;;;;6.10;2.50;;;6.00;98.00;;;;;;6123228;23;20014;-91
2024/01/29 04:07:57;;;;;;;8.07;3.08;;;6.10;99.10;;;;;;6097353;23;20068;-91
2024/01/29 04:10:23;;;;;;;7.95;3.10;;;6.00;98.20;;;;;;6121208;23;20049;-91
2024/01/29 04:12:49;;;;;;;8.57;3.20;;;6.00;99.10;;;;;;6097716;23;20025;-91
2024/01/29 04:15:14;;;;;;;6.35;2.25;;;6.00;99.10;;;;;;6097066;23;20106;-91
2024/01/29 04:17:40;;;;;;;8.13;3.15;;;6.00;98.90;;;;;;6123518;23;20041;-91
2024/01/29 04:20:06;;;;;;;8.25;2.83;;;6.00;98.90;;;;;;6121030;23;20375;-89
2024/01/29 04:22:32;;;;;;;8.38;2.83;;;6.00;99.20;;;;;;6096673;23;20490;-91
2024/01/29 04:25:04;;;;;;;8.23;2.50;;;6.00;99.60;;;;;;6096420;23;20032;-90
2024/01/29 04:27:29;;;;;;;7.45;2.78;;;5.90;99.90;;;;;;6120926;23;20018;-91
2024/01/29 04:29:55;;;;;;;8.25;2.88;;;5.90;99.90;;;;;;6121734;23;20017;-91
2024/01/29 04:32:21;;;;;;;7.57;3.05;;;5.90;99.80;;;;;;6097429;23;20467;-91
2024/01/29 04:34:47;;;;;;;8.13;2.95;;;5.90;99.90;;;;;;6121941;23;20061;-91
2024/01/29 04:37:13;;;;;;;7.22;2.65;;;5.90;99.90;;;;;;6097522;23;20056;-91
2024/01/29 04:39:39;;;;;;;10.30;3.10;;;5.90;99.90;;;;;;6096461;23;20014;-91
2024/01/29 04:42:06;;;;;;;8.48;2.97;;;5.90;99.90;;;;;;6121621;23;20014;-91
2024/01/29 04:44:31;;;;;;;7.57;2.47;;;5.90;99.90;;;;;;6120994;23;20010;-91
2024/01/29 04:46:58;;;;;;;8.02;2.22;;;5.90;99.90;;;;;;6096815;23;20110;-92
2024/01/29 04:49:24;;;;;;;8.40;2.50;;;5.80;99.90;;;;;;6097571;23;20396;-91
2024/01/29 04:51:50;;;;;;;7.20;2.67;;;5.80;99.90;;;;;;6121386;23;20010;-91
2024/01/29 04:54:16;;;;;;;7.43;3.13;;;5.70;99.90;;;;;;6123566;23;20085;-91
2024/01/29 04:56:41;;;;;;;8.68;3.58;;;5.70;99.90;;;;;;6096564;23;20371;-91
2024/01/29 04:59:07;;;;;;;6.38;2.25;;;5.70;99.90;;;;;;6096469;23;20009;-91
2024/01/29 05:01:33;;;;;;;5.97;2.25;;;5.70;99.90;;;;;;6096843;23;20017;-91
2024/01/29 05:03:58;;;;;;;7.22;2.80;;;5.70;99.90;;;;;;6096531;23;20018;-91
2024/01/29 05:06:24;;;;;;;5.55;2.58;;;5.60;99.90;;;;;;6120351;23;20109;-90
2024/01/29 05:08:50;;;;;;;8.70;2.90;;;5.50;99.90;;;;;;6121717;23;20388;-91
2024/01/29 05:11:15;;;;;;;7.75;2.97;;;5.50;99.90;;;;;;6122084;23;20073;-91
2024/01/29 05:13:42;;;;;;;8.23;2.85;;;5.60;99.90;;;;;;6120953;23;20013;-91
2024/01/29 05:16:10;;;;;;;7.53;3.00;;;5.60;99.90;;;;;;6120384;23;20025;-91
2024/01/29 05:18:36;;;;;;;7.30;3.08;;;5.60;99.90;;;;;;6096948;23;20010;-91
2024/01/29 05:21:03;;;;;;;8.85;3.13;;;5.60;99.90;;;;;;6096221;23;20014;-91
2024/01/29 05:23:28;;;;;;;12.07;3.28;;;5.60;99.90;;;;;;6096641;23;20022;-91
2024/01/29 05:25:54;;;;;;;7.45;2.58;;;5.60;99.90;;;;;;6144356;23;20036;-91
2024/01/29 05:28:21;;;;;;;8.63;3.00;;;5.60;99.90;;;;;;6096033;23;20065;-91
2024/01/29 05:30:47;;;;;;;9.50;2.83;;;5.60;99.90;;;;;;6121233;23;20467;-91
2024/01/29 05:33:13;;;;;;;8.10;2.92;;;5.60;99.90;;;;;;6096857;23;20014;-91
2024/01/29 05:35:38;;;;;;;8.18;2.95;;;5.60;99.90;;;;;;6121139;23;20092;-91
2024/01/29 05:38:04;;;;;;;7.45;2.75;;;5.60;99.90;;;;;;6096422;23;20021;-91
2024/01/29 05:40:29;;;;;;;7.03;2.80;;;5.60;99.90;;;;;;6097120;23;20478;-91
2024/01/29 05:42:55;;;;;;;9.27;3.05;;;5.60;99.90;;;;;;6096914;23;20022;-92
2024/01/29 05:45:21;;;;;;;8.07;3.55;;;5.50;99.90;;;;;;6096654;23;20025;-90
2024/01/29 05:47:47;;;;;;;8.70;3.00;;;5.60;99.90;;;;;;6117625;23;20061;-91
2024/01/29 05:50:13;;;;;;;7.13;2.53;;;5.50;99.90;;;;;;6117640;23;20014;-91
2024/01/29 05:52:39;;;;;;;7.75;2.97;;;5.50;99.90;;;;;;6119604;23;20087;-90
2024/01/29 05:55:05;;;;;;;6.47;2.55;;;5.50;99.90;;;;;;6092491;23;20633;-91
2024/01/29 05:57:31;;;;;;;8.48;3.08;;;5.50;99.90;;;;;;6118299;23;20013;-92
2024/01/29 05:59:56;;;;;;;7.80;3.20;;;5.40;99.90;;;;;;6093834;23;20051;-91
2024/01/29 06:02:22;;;;;;;11.20;2.90;;;5.40;99.90;;;;;;6121470;23;20018;-92
2024/01/29 06:04:48;;;;;;;6.72;2.83;;;5.40;99.90;;;;;;6096433;23;20483;-91
2024/01/29 06:07:13;;;;;;;7.75;2.67;;;5.40;99.90;;;;;;6120840;23;20020;-90
2024/01/29 06:09:39;;;;;;;9.25;3.42;;;5.30;99.90;;;;;;6120759;23;20010;-90
2024/01/29 06:12:05;;;;;;;6.38;2.45;;;5.40;99.90;;;;;;6120640;23;20025;-91
2024/01/29 06:14:32;;;;;;;9.02;3.30;;;5.40;99.90;;;;;;6096221;23;20006;-91
2024/01/29 06:16:58;;;;;;;8.45;3.30;;;5.40;99.90;;;;;;6122394;23;20494;-91
2024/01/29 06:19:24;;;;;;;8.70;2.95;;;5.40;99.90;;;;;;6120151;23;20097;-90
2024/01/29 06:21:50;;;;;;;10.77;3.25;;;5.40;99.90;;;;;;6095484;23;20020;-89
2024/01/29 06:24:16;;;;;;;7.25;2.95;;;5.40;99.90;;;;;;6095522;23;20046;-91
2024/01/29 06:26:42;;;;;;;8.25;2.83;;;5.40;99.90;;;;;;6119262;23;20097;-90
2024/01/29 06:29:08;;;;;;;7.60;2.88;;;5.30;99.90;;;;;;6095538;23;20054;-90
2024/01/29 06:31:38;;;;;;;6.43;2.55;;;5.30;99.90;;;;;;6120953;23;20018;-90
2024/01/29 06:34:04;;;;;;;7.93;2.75;;;5.20;99.90;;;;;;6096403;23;20068;-91
2024/01/29 06:36:30;;;;;;;8.07;3.00;;;5.20;99.90;;;;;;6120850;23;20088;-90
2024/01/29 06:38:58;;;;;;;7.97;2.50;;;5.20;99.90;;;;;;6095519;23;20014;-90
2024/01/29 06:41:24;;;;;;;7.40;2.83;;;5.20;99.90;;;;;;6095630;23;20061;-91
2024/01/29 06:43:51;;;;;;;8.80;3.53;;;5.10;99.90;;;;;;6095909;23;20018;-91
2024/01/29 06:46:17;;;;;;;7.57;2.83;;;5.10;99.90;;;;;;6094951;23;20060;-91
2024/01/29 06:48:43;;;;;;;8.25;2.65;;;5.20;99.90;;;;;;6119504;23;20117;-91
2024/01/29 06:51:09;;;;;;;5.32;2.10;;;5.20;99.90;;;;;;6096063;23;20069;-91
2024/01/29 06:53:35;;;;;;;9.57;3.15;;;5.20;99.90;;;;;;6096356;23;20037;-91
2024/01/29 06:56:04;;;;;;;6.40;2.63;;;5.20;99.90;;;;;;6095912;23;20017;-92
2024/01/29 06:58:31;;;;;;;8.32;2.92;;;5.30;99.90;;;;;;6119991;23;20013;-92
2024/01/29 07:01:00;;;;;;;7.88;3.08;;;5.30;99.90;;;;;;6121616;23;20017;-91
2024/01/29 07:03:26;;;;;;;9.40;3.42;;;5.30;99.90;;;;;;6121227;23;20010;-91
2024/01/29 07:05:52;;;;;;;9.32;3.35;;;5.30;99.90;;;;;;6120241;23;20041;-92
2024/01/29 07:08:18;;;;;;;6.63;2.53;;;5.40;99.90;;;;;;6120424;23;20468;-91
2024/01/29 07:10:44;;;;;;;7.53;3.10;;;5.40;99.90;;;;;;6122664;23;20010;-91
2024/01/29 07:13:10;;;;;;;9.93;3.78;;;5.40;99.90;;;;;;6120011;23;20010;-92
2024/01/29 07:15:36;;;;;;;9.65;3.40;;;5.40;99.90;;;;;;6121197;23;20041;-92
2024/01/29 07:18:02;;;;;;;6.65;2.60;;;5.40;99.90;;;;;;6095249;23;20613;-89
2024/01/29 07:20:29;;;;;;;11.00;3.92;;;5.40;99.90;;;;;;6095674;23;20049;-91
2024/01/29 07:22:58;;;;;;;8.82;2.92;;;5.30;99.90;;;;;;6121432;23;20088;-91
2024/01/29 07:25:26;;;;;;;8.63;2.90;;;5.30;99.90;;;;;;6122254;23;20014;-91
2024/01/29 07:27:51;;;;;;;8.15;2.33;;;5.30;99.90;;;;;;6095645;23;20482;-91
2024/01/29 07:30:17;;;;;;;7.72;2.78;;;5.20;99.90;;;;;;6096613;23;20085;-92
2024/01/29 07:32:43;;;;;;;6.78;2.38;;;5.20;99.90;;;;;;6096155;23;20009;-91
2024/01/29 07:35:09;;;;;;;5.40;2.40;;;5.20;99.90;;;;;;6095613;23;20110;-91
2024/01/29 07:37:35;;;;;;;8.65;2.95;;;5.20;99.90;;;;;;6120132;23;20022;-90
2024/01/29 07:40:03;;;;;;;7.13;2.83;;;5.20;99.90;;;;;;6097156;23;20097;-90
2024/01/29 07:42:29;;;;;;;8.23;3.10;;;5.20;99.90;;;;;;6096942;23;20528;-90
2024/01/29 07:44:54;;;;;;;11.85;3.78;;;5.20;99.90;;;;;;6097192;23;20042;-90
2024/01/29 07:47:20;;;;;;;7.38;3.03;;;5.20;99.90;;;;;;6146661;23;20144;-90
2024/01/29 07:49:46;;;;;;;5.72;2.47;;;5.20;99.90;;;;;;6098114;23;20037;-90
2024/01/29 07:52:11;;;;;;;6.97;2.85;;;5.20;99.90;;;;;;6094477;23;20020;-91
2024/01/29 07:54:37;;;;;;;10.20;3.80;;;5.10;99.90;;;;;;6120740;23;20012;-90
2024/01/29 07:57:03;;;;;;;7.53;3.22;;;5.10;99.90;;;;;;6120508;23;20010;-91
2024/01/29 07:59:29;;;;;;;10.15;3.70;;;5.10;99.90;;;;;;6122272;23;20101;-91
2024/01/29 08:01:55;;;;;;;7.78;3.45;;;5.10;99.90;;;;;;6097174;23;20097;-90
2024/01/29 08:04:20;;;;;;;9.93;4.00;;;5.10;99.90;;;;;;6096633;23;20056;-90
2024/01/29 08:06:46;;;;;;;8.45;3.75;;;5.00;99.90;;;;;;6121593;23;20716;-91
2024/01/29 08:09:12;;;;;;;10.20;3.55;;;5.00;99.90;;;;;;6096199;23;20030;-90
2024/01/29 08:11:37;;;;;;;9.23;3.97;;;5.10;99.90;;;;;;6096573;23;20017;-90
2024/01/29 08:14:03;;;;;;;11.27;3.80;;;5.00;99.90;;;;;;6097180;23;20089;-90
2024/01/29 08:16:29;;;;;;;7.78;3.25;;;5.10;99.90;;;;;;6121186;23;20014;-91
2024/01/29 08:18:56;;;;;;;7.60;2.80;;;5.10;99.90;;;;;;6098873;23;20022;-90
2024/01/29 08:21:21;;;;;;;7.03;3.05;;;5.10;99.90;;;;;;6103979;23;20049;-90
2024/01/29 08:23:47;;;;;;;9.50;3.50;;;5.20;99.90;;;;;;6097374;23;20014;-90
2024/01/29 08:26:13;;;;;;;6.45;3.15;;;5.20;99.90;;;;;;6120627;23;20395;-90
2024/01/29 08:28:38;;;;;;;8.82;2.97;;;5.20;99.90;;;;;;6121136;23;20098;-90
2024/01/29 08:31:06;;;;;;;8.98;3.47;;;5.30;99.90;;;;;;6096945;23;20018;-90
2024/01/29 08:33:32;;;;;;;8.70;3.50;;;5.30;99.90;;;;;;6122049;23;20081;-90
2024/01/29 08:35:58;;;;;;;9.60;3.88;;;5.40;99.90;;;;;;6119777;23;20013;-90
2024/01/29 08:38:24;;;;;;;8.73;3.28;;;5.40;99.90;;;;;;6121867;23;20403;-90
2024/01/29 08:40:54;;;;;;;7.80;2.75;;;5.50;99.90;;;;;;6095893;23;20018;-90
2024/01/29 08:43:20;;;;;;;11.57;4.72;;;5.50;99.90;;;;;;6119894;23;20364;-91
2024/01/29 08:45:46;;;;;;;8.07;3.35;;;5.60;99.90;;;;;;6095707;23;20459;-91
2024/01/29 08:48:11;;;;;;;9.55;3.38;;;5.70;99.90;;;;;;6094960;23;20460;-90
2024/01/29 08:50:37;;;;;;;7.07;3.17;;;5.80;99.90;;;;;;6096719;23;20018;-90
2024/01/29 08:53:03;;;;;;;9.35;3.20;;;5.90;99.90;;;;;;6121148;23;20065;-91
2024/01/29 08:55:31;;;;;;;8.65;3.45;;;6.00;99.90;;;;;;6120245;23;20049;-90
2024/01/29 08:57:57;;;;;;;9.98;3.40;;;6.00;99.90;;;;;;6096870;23;20018;-91
2024/01/29 09:00:22;;;;;;;10.10;3.55;;;6.10;99.90;;;;;;6118363;23;20025;-92
2024/01/29 09:02:49;;;;;;;9.88;3.78;;;6.10;99.90;;;;;;6120908;23;20009;-91
2024/01/29 09:05:15;;;;;;;9.90;3.60;;;6.20;99.90;;;;;;6092672;23;20018;-91
2024/01/29 09:07:41;;;;;;;5.70;2.13;;;6.30;99.90;;;;;;6094081;23;20027;-91
2024/01/29 09:10:07;;;;;;;8.93;3.20;;;6.30;99.90;;;;;;6119752;23;20006;-91
2024/01/29 09:12:33;;;;;;;7.85;2.83;;;6.40;99.90;;;;;;6121064;23;20010;-91
2024/01/29 09:14:59;;;;;;;5.68;2.55;;;6.40;99.90;;;;;;6097167;23;20363;-91
2024/01/29 09:17:24;;;;;;;12.05;4.57;;;6.40;99.90;;;;;;6121262;23;20017;-91
2024/01/29 09:19:51;;;;;;;8.38;3.33;;;6.50;99.90;;;;;;6123062;23;20017;-90
2024/01/29 09:22:18;;;;;;;9.10;3.45;;;6.50;99.90;;;;;;6122690;23;20017;-91
2024/01/29 09:24:43;;;;;;;7.88;2.75;;;6.50;99.90;;;;;;6095692;23;20012;-90
2024/01/29 09:27:10;;;;;;;13.27;3.65;;;6.60;99.90;;;;;;6120443;23;20097;-91
2024/01/29 09:29:35;;;;;;;9.10;3.08;;;6.60;99.90;;;;;;6116681;23;20065;-91
2024/01/29 09:32:01;;;;;;;6.93;2.65;;;6.70;99.90;;;;;;6119997;23;20041;-91
2024/01/29 09:34:27;;;;;;;9.35;3.72;;;6.70;99.90;;;;;;6121255;23;20010;-91
2024/01/29 09:36:53;;;;;;;9.18;4.70;;;6.70;99.90;;;;;;6120083;23;20455;-91
2024/01/29 09:39:19;;;;;;;9.00;3.92;;;6.80;99.90;;;;;;6120980;23;20018;-91
2024/01/29 09:41:46;;;;;;;9.55;3.85;;;6.90;99.90;;;;;;6094820;23;20049;-91
2024/01/29 09:44:12;;;;;;;8.43;3.67;;;7.00;99.90;;;;;;6121308;23;20021;-91
2024/01/29 09:46:40;;;;;;;9.02;3.75;;;7.00;99.90;;;;;;6095852;23;20482;-92
2024/01/29 09:49:07;;;;;;;7.93;3.47;;;7.10;99.90;;;;;;6095869;23;20021;-91
2024/01/29 09:51:33;;;;;;;8.63;3.25;;;7.10;99.90;;;;;;6095862;23;20363;-91
2024/01/29 09:54:01;;;;;;;9.15;3.38;;;7.20;99.90;;;;;;6119336;23;20018;-91
2024/01/29 09:56:30;;;;;;;10.95;4.47;;;7.30;99.90;;;;;;6119765;23;20013;-92
2024/01/29 09:58:56;;;;;;;8.65;3.25;;;7.40;99.90;;;;;;6119027;23;20028;-92
2024/01/29 10:01:23;;;;;;;6.32;2.42;;;7.50;99.90;;;;;;6095525;23;20014;-91
2024/01/29 10:03:49;;;;;;;7.57;3.45;;;7.50;99.90;;;;;;6122521;23;20084;-92
2024/01/29 10:06:16;;;;;;;8.45;3.58;;;7.60;99.90;;;;;;6095684;23;20017;-92
2024/01/29 10:08:42;;;;;;;6.80;2.85;;;7.70;99.90;;;;;;6096412;23;20022;-92
2024/01/29 10:11:08;;;;;;;13.32;4.70;;;7.80;99.90;;;;;;6096246;23;20041;-92
2024/01/29 10:13:34;;;;;;;9.35;3.65;;;7.80;99.90;;;;;;6123533;23;20053;-94
2024/01/29 10:16:00;;;;;;;9.73;4.30;;;7.90;99.90;;;;;;6095353;23;20439;-92
2024/01/29 10:18:26;;;;;;;8.73;3.70;;;8.00;99.90;;;;;;6096356;23;20014;-92
2024/01/29 10:21:05;;;;;;;11.00;4.35;;;8.00;99.90;;;;;;6119915;23;20452;-91
2024/01/29 10:23:31;;;;;;;7.85;3.63;;;8.10;99.90;;;;;;6119775;23;20129;-91
2024/01/29 10:25:58;;;;;;;10.90;5.80;;;8.10;99.90;;;;;;6095063;23;20021;-91
2024/01/29 10:28:26;;;;;;;11.23;4.75;;;8.20;99.90;;;;;;6115853;23;20018;-92
2024/01/29 10:30:54;;;;;;;10.77;4.60;;;8.20;99.90;;;;;;6120131;23;20076;-92
2024/01/29 10:33:21;;;;;;;8.80;4.18;;;8.20;99.90;;;;;;6095224;23;20048;-92
2024/01/29 10:35:47;;;;;;;10.63;4.28;;;8.30;99.90;;;;;;6121062;23;20016;-92
2024/01/29 10:38:17;;;;;;;10.68;4.60;;;8.40;99.90;;;;;;6119812;23;20101;-92
2024/01/29 10:40:45;;;;;;;8.65;3.45;;;8.40;99.90;;;;;;6104521;23;20022;-92
2024/01/29 10:43:25;;;;;;;10.50;4.28;;;8.50;99.90;;;;;;6100288;23;20014;-91
2024/01/29 10:45:53;;;;;;;10.98;4.63;;;8.50;99.90;;;;;;6094244;23;20467;-91
2024/01/29 10:48:23;;;;;;;11.10;4.47;;;8.60;99.90;;;;;;6144202;23;20028;-91
2024/01/29 10:50:50;;;;;;;9.85;4.65;;;8.70;99.90;;;;;;6121794;23;20376;-91
2024/01/29 10:53:16;;;;;;;9.85;4.43;;;8.80;99.90;;;;;;6120260;23;20014;-92
2024/01/29 10:55:50;;;;;;;10.15;4.07;;;8.80;99.90;;;;;;6119802;23;20006;-91
2024/01/29 10:58:17;;;;;;;10.82;4.25;;;8.90;99.90;;;;;;6121636;23;20041;-91
2024/01/29 11:00:44;;;;;;;9.63;4.53;;;8.90;99.90;;;;;;6120991;23;20014;-92
2024/01/29 11:03:12;;;;;;;9.15;4.00;;;9.00;99.90;;;;;;6119887;23;20026;-92
2024/01/29 11:05:40;;;;;;;8.20;4.00;;;9.00;99.90;;;;;;6095524;23;20013;-92
2024/01/29 11:08:11;;;;;;;9.63;4.40;;;9.10;99.90;;;;;;6096553;23;20093;-92
2024/01/29 11:10:37;;;;;;;11.13;5.00;;;9.20;99.90;;;;;;6120035;23;20017;-92
2024/01/29 11:13:04;;;;;;;9.32;4.22;;;9.30;99.90;;;;;;6124184;23;20010;-89
2024/01/29 11:15:32;;;;;;;10.60;5.13;;;9.40;99.90;;;;;;6123774;23;20041;-89
2024/01/29 11:17:58;;;;;;;8.82;4.93;;;9.50;99.90;;;;;;6099025;23;20089;-92
2024/01/29 11:20:24;;;;;;;9.63;3.83;;;9.50;99.90;;;;;;6097718;23;20014;-92
2024/01/29 11:22:57;;;;;;;10.25;4.90;;;9.60;99.90;;;;;;6098404;23;20025;-92
2024/01/29 11:25:26;;;;;;;9.65;4.45;;;9.70;99.90;;;;;;6122797;23;20018;-92
2024/01/29 11:27:52;;;;;;;10.10;5.45;;;9.80;99.90;;;;;;6122873;23;20025;-92
2024/01/29 11:30:21;;;;;;;9.05;4.68;;;9.80;99.90;;;;;;6123040;23;20006;-92
2024/01/29 11:32:47;;;;;;;11.80;4.88;;;10.00;99.90;;;;;;6098390;23;20010;-92
2024/01/29 11:35:15;;;;;;;12.02;5.03;;;10.00;99.90;;;;;;6122226;23;20096;-92
2024/01/29 11:37:42;;;;;;;11.30;5.25;;;10.10;99.90;;;;;;6124854;23;20081;-92
2024/01/29 11:40:40;;;;;;;8.40;3.25;;;10.10;99.90;;;;;;6123275;23;20014;-92
2024/01/29 11:43:17;;;;;;;9.52;4.72;;;10.20;99.90;;;;;;6123360;23;20022;-93
2024/01/29 11:45:50;;;;;;;9.10;4.32;;;10.30;99.90;;;;;;6123219;23;20041;-93
2024/01/29 11:48:18;;;;;;;12.68;5.43;;;10.40;99.90;;;;;;6098522;23;20018;-94
2024/01/29 11:50:46;;;;;;;10.25;5.28;;;10.50;99.90;;;;;;6122858;23;20056;-93
2024/01/29 11:53:14;;;;;;;9.95;5.53;;;10.60;99.90;;;;;;6123302;23;20452;-94
2024/01/29 11:55:41;;;;;;;9.88;4.65;;;10.70;99.90;;;;;;6122736;23;20088;-93
2024/01/29 11:58:12;;;;;;;11.27;5.13;;;10.80;99.90;;;;;;6099014;23;20018;-94
2024/01/29 12:00:38;;;;;;;11.45;5.13;;;10.90;99.90;;;;;;6098761;23;20056;-92
2024/01/29 12:03:04;;;;;;;11.75;5.22;;;11.00;99.90;;;;;;6098293;23;20429;-92
2024/01/29 12:05:30;;;;;;;11.35;5.15;;;11.00;99.90;;;;;;6122133;23;20037;-92
2024/01/29 12:07:56;;;;;;;16.00;5.07;;;11.10;99.90;;;;;;6122422;23;20026;-91
2024/01/29 12:10:21;;;;;;;10.60;5.35;;;11.20;99.90;;;;;;6121906;23;20097;-90
2024/01/29 12:12:47;;;;;;;11.05;5.03;;;11.30;99.90;;;;;;6121299;23;20060;-91
2024/01/29 12:15:13;;;;;;;11.27;5.40;;;11.50;99.90;;;;;;6122166;23;20014;-92
2024/01/29 12:17:41;;;;;;;10.70;5.65;;;11.60;99.90;;;;;;6147218;23;20014;-92
2024/01/29 12:20:10;;;;;;;13.52;5.47;;;11.70;99.90;;;;;;6097863;23;20014;-91
2024/01/29 12:22:37;;;;;;;11.63;5.22;;;11.80;99.90;;;;;;6097557;23;20045;-92
2024/01/29 12:25:03;;;;;;;11.93;6.13;;;11.70;99.90;;;;;;6121848;23;20376;-92
2024/01/29 12:27:29;;;;;;;11.45;4.70;;;11.50;99.90;;;;;;6121763;23;20275;-92
2024/01/29 12:29:56;;;;;;;11.45;5.18;;;11.30;99.90;;;;;;6122158;23;20068;-92
2024/01/29 12:32:22;;;;;;;10.07;5.80;;;11.20;99.90;;;;;;6122615;23;20092;-92
2024/01/29 12:34:48;;;;;;;11.35;5.75;;;11.10;99.90;;;;;;6096937;23;20018;-92
2024/01/29 12:37:21;;;;;;;12.55;6.07;;;11.00;99.90;;;;;;6096671;23;20475;-92
2024/01/29 12:39:51;;;;;;;17.83;6.15;;;10.90;99.90;;;;;;6124128;23;20025;-92
2024/01/29 12:42:17;;;;;;;11.02;5.50;;;10.90;99.90;;;;;;6097341;23;20068;-92
2024/01/29 12:44:42;;;;;;;14.07;5.85;;;10.80;99.90;;;;;;6121504;23;20545;-92
2024/01/29 12:47:12;;;;;;;11.15;5.72;;;10.80;99.90;;;;;;6096890;23;20467;-92
2024/01/29 12:49:38;;;;;;;12.80;5.93;;;10.80;99.90;;;;;;6120373;23;20585;-92